sensor_id;sensor_type;location;lat;lon;timestamp;P1;durP1;ratioP1;P2;durP2;ratioP2
13868;SDS011;7004;48.206;16.402;2022-07-06T00:01:47;4.30;;;3.90;;
13868;SDS011;7004;48.206;16.402;2022-07-06T00:04:18;4.47;;;3.90;;
13868;SDS011;7004;48.206;16.402;2022-07-06T00:06:50;4.30;;;3.90;;
13868;SDS011;7004;48.206;16.402;2022-07-06T00:09:18;6.87;;;4.00;;
13868;SDS011;7004;48.206;16.402;2022-07-06T00:11:47;6.17;;;4.03;;
13868;SDS011;7004;48.206;16.402;2022-07-06T00:14:17;3.80;;;3.53;;
13868;SDS011;7004;48.206;16.402;2022-07-06T00:16:46;4.73;;;3.97;;
13868;SDS011;7004;48.206;16.402;2022-07-06T00:19:15;7.70;;;3.80;;
13868;SDS011;7004;48.206;16.402;2022-07-06T00:21:46;4.63;;;3.93;;
13868;SDS011;7004;48.206;16.402;2022-07-06T00:24:16;6.87;;;4.00;;
13868;SDS011;7004;48.206;16.402;2022-07-06T00:26:54;4.80;;;3.80;;
13868;SDS011;7004;48.206;16.402;2022-07-06T00:29:23;3.70;;;3.40;;
13868;SDS011;7004;48.206;16.402;2022-07-06T00:31:53;4.10;;;3.73;;
13868;SDS011;7004;48.206;16.402;2022-07-06T00:34:20;4.30;;;3.90;;
13868;SDS011;7004;48.206;16.402;2022-07-06T00:36:46;3.67;;;3.37;;
13868;SDS011;7004;48.206;16.402;2022-07-06T00:39:14;4.00;;;3.60;;
13868;SDS011;7004;48.206;16.402;2022-07-06T00:41:43;5.30;;;3.80;;
13868;SDS011;7004;48.206;16.402;2022-07-06T00:44:10;5.63;;;4.00;;
13868;SDS011;7004;48.206;16.402;2022-07-06T00:46:38;5.57;;;3.63;;
13868;SDS011;7004;48.206;16.402;2022-07-06T00:49:07;4.40;;;4.00;;
13868;SDS011;7004;48.206;16.402;2022-07-06T00:51:55;4.27;;;3.87;;
13868;SDS011;7004;48.206;16.402;2022-07-06T00:54:24;4.63;;;4.23;;
13868;SDS011;7004;48.206;16.402;2022-07-06T00:56:52;4.07;;;3.70;;
13868;SDS011;7004;48.206;16.402;2022-07-06T00:59:19;7.53;;;4.40;;
13868;SDS011;7004;48.206;16.402;2022-07-06T01:01:45;5.57;;;5.10;;
13868;SDS011;7004;48.206;16.402;2022-07-06T01:04:12;6.40;;;4.80;;
13868;SDS011;7004;48.206;16.402;2022-07-06T01:06:40;5.90;;;5.40;;
13868;SDS011;7004;48.206;16.402;2022-07-06T01:09:07;8.90;;;6.17;;
13868;SDS011;7004;48.206;16.402;2022-07-06T01:11:33;6.63;;;6.10;;
13868;SDS011;7004;48.206;16.402;2022-07-06T01:14:00;6.10;;;5.60;;
13868;SDS011;7004;48.206;16.402;2022-07-06T01:16:27;6.60;;;6.03;;
13868;SDS011;7004;48.206;16.402;2022-07-06T01:18:53;7.00;;;6.30;;
13868;SDS011;7004;48.206;16.402;2022-07-06T01:21:20;7.70;;;7.00;;
13868;SDS011;7004;48.206;16.402;2022-07-06T01:23:47;7.20;;;6.60;;
13868;SDS011;7004;48.206;16.402;2022-07-06T01:26:15;7.83;;;7.03;;
13868;SDS011;7004;48.206;16.402;2022-07-06T01:28:44;8.03;;;7.20;;
13868;SDS011;7004;48.206;16.402;2022-07-06T01:31:20;8.10;;;6.23;;
13868;SDS011;7004;48.206;16.402;2022-07-06T01:33:49;7.83;;;7.13;;
13868;SDS011;7004;48.206;16.402;2022-07-06T01:36:19;7.20;;;6.50;;
13868;SDS011;7004;48.206;16.402;2022-07-06T01:38:50;8.13;;;7.30;;
13868;SDS011;7004;48.206;16.402;2022-07-06T01:41:23;7.80;;;7.03;;
13868;SDS011;7004;48.206;16.402;2022-07-06T01:43:50;7.37;;;6.67;;
13868;SDS011;7004;48.206;16.402;2022-07-06T01:46:16;7.70;;;6.83;;
13868;SDS011;7004;48.206;16.402;2022-07-06T01:48:44;7.53;;;6.80;;
13868;SDS011;7004;48.206;16.402;2022-07-06T01:51:11;8.50;;;7.07;;
13868;SDS011;7004;48.206;16.402;2022-07-06T01:53:37;7.53;;;6.73;;
13868;SDS011;7004;48.206;16.402;2022-07-06T01:56:04;7.77;;;7.10;;
13868;SDS011;7004;48.206;16.402;2022-07-06T01:58:30;7.57;;;6.80;;
13868;SDS011;7004;48.206;16.402;2022-07-06T02:00:57;8.00;;;7.20;;
13868;SDS011;7004;48.206;16.402;2022-07-06T02:03:24;7.83;;;7.00;;
13868;SDS011;7004;48.206;16.402;2022-07-06T02:05:51;8.00;;;7.03;;
13868;SDS011;7004;48.206;16.402;2022-07-06T02:08:17;7.33;;;6.73;;
13868;SDS011;7004;48.206;16.402;2022-07-06T02:10:44;7.07;;;6.47;;
13868;SDS011;7004;48.206;16.402;2022-07-06T02:13:10;7.10;;;6.40;;
13868;SDS011;7004;48.206;16.402;2022-07-06T02:15:37;7.30;;;6.60;;
13868;SDS011;7004;48.206;16.402;2022-07-06T02:18:03;7.60;;;6.80;;
13868;SDS011;7004;48.206;16.402;2022-07-06T02:20:29;7.07;;;6.37;;
13868;SDS011;7004;48.206;16.402;2022-07-06T02:22:56;7.40;;;6.60;;
13868;SDS011;7004;48.206;16.402;2022-07-06T02:25:22;7.27;;;6.20;;
13868;SDS011;7004;48.206;16.402;2022-07-06T02:27:48;7.27;;;6.67;;
13868;SDS011;7004;48.206;16.402;2022-07-06T02:30:14;10.17;;;7.17;;
13868;SDS011;7004;48.206;16.402;2022-07-06T02:32:41;7.53;;;6.83;;
13868;SDS011;7004;48.206;16.402;2022-07-06T02:35:08;7.30;;;6.60;;
13868;SDS011;7004;48.206;16.402;2022-07-06T02:37:34;7.90;;;6.43;;
13868;SDS011;7004;48.206;16.402;2022-07-06T02:40:00;6.87;;;6.27;;
13868;SDS011;7004;48.206;16.402;2022-07-06T02:42:26;7.30;;;6.60;;
13868;SDS011;7004;48.206;16.402;2022-07-06T02:44:53;7.10;;;6.50;;
13868;SDS011;7004;48.206;16.402;2022-07-06T02:47:19;7.53;;;6.40;;
13868;SDS011;7004;48.206;16.402;2022-07-06T02:49:46;8.27;;;7.00;;
13868;SDS011;7004;48.206;16.402;2022-07-06T02:52:12;9.67;;;6.40;;
13868;SDS011;7004;48.206;16.402;2022-07-06T02:54:38;7.60;;;7.00;;
13868;SDS011;7004;48.206;16.402;2022-07-06T02:57:04;8.23;;;6.93;;
13868;SDS011;7004;48.206;16.402;2022-07-06T02:59:30;7.20;;;6.60;;
13868;SDS011;7004;48.206;16.402;2022-07-06T03:01:57;6.97;;;6.47;;
13868;SDS011;7004;48.206;16.402;2022-07-06T03:04:23;7.67;;;6.43;;
13868;SDS011;7004;48.206;16.402;2022-07-06T03:06:49;6.80;;;6.20;;
13868;SDS011;7004;48.206;16.402;2022-07-06T03:09:15;7.13;;;6.40;;
13868;SDS011;7004;48.206;16.402;2022-07-06T03:11:41;7.00;;;6.40;;
13868;SDS011;7004;48.206;16.402;2022-07-06T03:14:07;7.17;;;6.47;;
13868;SDS011;7004;48.206;16.402;2022-07-06T03:16:33;10.10;;;6.17;;
13868;SDS011;7004;48.206;16.402;2022-07-06T03:18:59;8.43;;;6.13;;
13868;SDS011;7004;48.206;16.402;2022-07-06T03:21:25;7.13;;;5.90;;
13868;SDS011;7004;48.206;16.402;2022-07-06T03:23:51;8.30;;;5.50;;
13868;SDS011;7004;48.206;16.402;2022-07-06T03:26:18;7.97;;;5.70;;
13868;SDS011;7004;48.206;16.402;2022-07-06T03:28:44;7.00;;;5.93;;
13868;SDS011;7004;48.206;16.402;2022-07-06T03:31:10;7.93;;;5.87;;
13868;SDS011;7004;48.206;16.402;2022-07-06T03:33:36;9.57;;;5.40;;
13868;SDS011;7004;48.206;16.402;2022-07-06T03:36:03;5.97;;;5.23;;
13868;SDS011;7004;48.206;16.402;2022-07-06T03:38:30;7.07;;;5.60;;
13868;SDS011;7004;48.206;16.402;2022-07-06T03:40:56;7.13;;;5.87;;
13868;SDS011;7004;48.206;16.402;2022-07-06T03:43:22;6.27;;;5.50;;
13868;SDS011;7004;48.206;16.402;2022-07-06T03:45:48;6.33;;;5.80;;
13868;SDS011;7004;48.206;16.402;2022-07-06T03:48:14;6.30;;;5.20;;
13868;SDS011;7004;48.206;16.402;2022-07-06T03:50:41;9.63;;;6.30;;
13868;SDS011;7004;48.206;16.402;2022-07-06T03:53:07;6.93;;;5.87;;
13868;SDS011;7004;48.206;16.402;2022-07-06T03:55:33;6.10;;;5.50;;
13868;SDS011;7004;48.206;16.402;2022-07-06T03:58:00;9.33;;;5.73;;
13868;SDS011;7004;48.206;16.402;2022-07-06T04:00:26;6.17;;;5.57;;
13868;SDS011;7004;48.206;16.402;2022-07-06T04:02:52;10.27;;;5.63;;
13868;SDS011;7004;48.206;16.402;2022-07-06T04:05:18;7.97;;;5.67;;
13868;SDS011;7004;48.206;16.402;2022-07-06T04:07:48;6.80;;;5.80;;
13868;SDS011;7004;48.206;16.402;2022-07-06T04:10:15;6.37;;;5.77;;
13868;SDS011;7004;48.206;16.402;2022-07-06T04:12:42;6.57;;;5.83;;
13868;SDS011;7004;48.206;16.402;2022-07-06T04:15:10;6.63;;;5.80;;
13868;SDS011;7004;48.206;16.402;2022-07-06T04:17:38;7.13;;;5.50;;
13868;SDS011;7004;48.206;16.402;2022-07-06T04:20:20;6.00;;;5.47;;
13868;SDS011;7004;48.206;16.402;2022-07-06T04:22:48;5.93;;;5.33;;
13868;SDS011;7004;48.206;16.402;2022-07-06T04:25:15;9.80;;;4.90;;
13868;SDS011;7004;48.206;16.402;2022-07-06T04:27:41;8.50;;;5.07;;
13868;SDS011;7004;48.206;16.402;2022-07-06T04:30:08;5.63;;;4.90;;
13868;SDS011;7004;48.206;16.402;2022-07-06T04:32:35;6.20;;;4.67;;
13868;SDS011;7004;48.206;16.402;2022-07-06T04:35:02;11.60;;;4.80;;
13868;SDS011;7004;48.206;16.402;2022-07-06T04:37:30;7.87;;;4.90;;
13868;SDS011;7004;48.206;16.402;2022-07-06T04:39:57;7.27;;;4.70;;
13868;SDS011;7004;48.206;16.402;2022-07-06T04:42:23;9.13;;;5.13;;
13868;SDS011;7004;48.206;16.402;2022-07-06T04:44:50;8.00;;;4.50;;
13868;SDS011;7004;48.206;16.402;2022-07-06T04:47:17;5.50;;;3.90;;
13868;SDS011;7004;48.206;16.402;2022-07-06T04:49:43;6.87;;;4.13;;
13868;SDS011;7004;48.206;16.402;2022-07-06T04:52:09;4.40;;;3.90;;
13868;SDS011;7004;48.206;16.402;2022-07-06T04:54:35;6.70;;;3.93;;
13868;SDS011;7004;48.206;16.402;2022-07-06T04:57:02;6.13;;;4.00;;
13868;SDS011;7004;48.206;16.402;2022-07-06T04:59:29;7.77;;;4.50;;
13868;SDS011;7004;48.206;16.402;2022-07-06T05:01:55;4.23;;;3.83;;
13868;SDS011;7004;48.206;16.402;2022-07-06T05:04:21;4.37;;;3.87;;
13868;SDS011;7004;48.206;16.402;2022-07-06T05:06:48;4.23;;;3.67;;
13868;SDS011;7004;48.206;16.402;2022-07-06T05:09:15;5.67;;;3.60;;
13868;SDS011;7004;48.206;16.402;2022-07-06T05:11:41;5.63;;;3.50;;
13868;SDS011;7004;48.206;16.402;2022-07-06T05:14:08;3.60;;;3.30;;
13868;SDS011;7004;48.206;16.402;2022-07-06T05:16:34;5.07;;;3.43;;
13868;SDS011;7004;48.206;16.402;2022-07-06T05:19:00;7.87;;;3.57;;
13868;SDS011;7004;48.206;16.402;2022-07-06T05:21:26;3.53;;;3.23;;
13868;SDS011;7004;48.206;16.402;2022-07-06T05:23:52;3.67;;;3.30;;
13868;SDS011;7004;48.206;16.402;2022-07-06T05:26:18;3.43;;;3.20;;
13868;SDS011;7004;48.206;16.402;2022-07-06T05:28:44;5.67;;;2.90;;
13868;SDS011;7004;48.206;16.402;2022-07-06T05:31:11;6.10;;;3.80;;
13868;SDS011;7004;48.206;16.402;2022-07-06T05:33:37;3.50;;;3.20;;
13868;SDS011;7004;48.206;16.402;2022-07-06T05:36:03;3.80;;;3.50;;
13868;SDS011;7004;48.206;16.402;2022-07-06T05:38:30;3.30;;;3.00;;
13868;SDS011;7004;48.206;16.402;2022-07-06T05:40:56;4.77;;;3.37;;
13868;SDS011;7004;48.206;16.402;2022-07-06T05:43:23;4.13;;;3.30;;
13868;SDS011;7004;48.206;16.402;2022-07-06T05:45:49;3.90;;;3.40;;
13868;SDS011;7004;48.206;16.402;2022-07-06T05:48:15;3.20;;;3.00;;
13868;SDS011;7004;48.206;16.402;2022-07-06T05:51:00;3.37;;;3.07;;
13868;SDS011;7004;48.206;16.402;2022-07-06T05:53:28;3.37;;;2.90;;
13868;SDS011;7004;48.206;16.402;2022-07-06T05:55:54;3.97;;;2.93;;
13868;SDS011;7004;48.206;16.402;2022-07-06T05:58:21;3.47;;;3.13;;
13868;SDS011;7004;48.206;16.402;2022-07-06T06:00:47;3.90;;;3.00;;
13868;SDS011;7004;48.206;16.402;2022-07-06T06:03:13;3.50;;;3.20;;
13868;SDS011;7004;48.206;16.402;2022-07-06T06:05:40;4.10;;;2.83;;
13868;SDS011;7004;48.206;16.402;2022-07-06T06:08:06;3.70;;;3.40;;
13868;SDS011;7004;48.206;16.402;2022-07-06T06:10:33;3.63;;;3.33;;
13868;SDS011;7004;48.206;16.402;2022-07-06T06:12:59;3.50;;;3.07;;
13868;SDS011;7004;48.206;16.402;2022-07-06T06:15:25;3.33;;;3.07;;
13868;SDS011;7004;48.206;16.402;2022-07-06T06:17:52;3.57;;;3.27;;
13868;SDS011;7004;48.206;16.402;2022-07-06T06:20:18;3.60;;;3.30;;
13868;SDS011;7004;48.206;16.402;2022-07-06T06:22:49;5.10;;;3.20;;
13868;SDS011;7004;48.206;16.402;2022-07-06T06:25:18;3.30;;;3.00;;
13868;SDS011;7004;48.206;16.402;2022-07-06T06:27:46;3.67;;;3.37;;
13868;SDS011;7004;48.206;16.402;2022-07-06T06:30:13;3.77;;;2.90;;
13868;SDS011;7004;48.206;16.402;2022-07-06T06:32:39;8.83;;;3.27;;
13868;SDS011;7004;48.206;16.402;2022-07-06T06:35:06;4.23;;;3.20;;
13868;SDS011;7004;48.206;16.402;2022-07-06T06:37:33;3.33;;;3.03;;
13868;SDS011;7004;48.206;16.402;2022-07-06T06:40:03;6.03;;;3.40;;
13868;SDS011;7004;48.206;16.402;2022-07-06T06:42:31;4.83;;;3.40;;
13868;SDS011;7004;48.206;16.402;2022-07-06T06:44:58;4.67;;;3.80;;
13868;SDS011;7004;48.206;16.402;2022-07-06T06:47:24;3.70;;;3.40;;
13868;SDS011;7004;48.206;16.402;2022-07-06T06:49:50;4.00;;;3.53;;
13868;SDS011;7004;48.206;16.402;2022-07-06T06:52:16;7.70;;;4.20;;
13868;SDS011;7004;48.206;16.402;2022-07-06T06:54:42;6.07;;;3.40;;
13868;SDS011;7004;48.206;16.402;2022-07-06T06:57:09;4.87;;;3.13;;
13868;SDS011;7004;48.206;16.402;2022-07-06T06:59:35;3.80;;;3.10;;
13868;SDS011;7004;48.206;16.402;2022-07-06T07:02:01;4.47;;;3.30;;
13868;SDS011;7004;48.206;16.402;2022-07-06T07:04:27;5.83;;;3.40;;
13868;SDS011;7004;48.206;16.402;2022-07-06T07:06:54;3.87;;;3.47;;
13868;SDS011;7004;48.206;16.402;2022-07-06T07:09:20;3.93;;;3.53;;
13868;SDS011;7004;48.206;16.402;2022-07-06T07:11:46;3.40;;;3.10;;
13868;SDS011;7004;48.206;16.402;2022-07-06T07:14:12;3.60;;;3.30;;
13868;SDS011;7004;48.206;16.402;2022-07-06T07:16:38;3.80;;;3.50;;
13868;SDS011;7004;48.206;16.402;2022-07-06T07:19:04;5.63;;;3.50;;
13868;SDS011;7004;48.206;16.402;2022-07-06T07:21:30;3.70;;;3.33;;
13868;SDS011;7004;48.206;16.402;2022-07-06T07:23:57;3.90;;;3.60;;
13868;SDS011;7004;48.206;16.402;2022-07-06T07:26:23;3.70;;;3.40;;
13868;SDS011;7004;48.206;16.402;2022-07-06T07:28:49;6.43;;;3.63;;
13868;SDS011;7004;48.206;16.402;2022-07-06T07:31:15;7.10;;;3.80;;
13868;SDS011;7004;48.206;16.402;2022-07-06T07:33:41;3.77;;;3.40;;
13868;SDS011;7004;48.206;16.402;2022-07-06T07:36:07;6.73;;;3.53;;
13868;SDS011;7004;48.206;16.402;2022-07-06T07:38:33;5.17;;;3.27;;
13868;SDS011;7004;48.206;16.402;2022-07-06T07:40:59;5.93;;;3.53;;
13868;SDS011;7004;48.206;16.402;2022-07-06T07:43:25;3.80;;;3.33;;
13868;SDS011;7004;48.206;16.402;2022-07-06T07:45:51;4.03;;;3.63;;
13868;SDS011;7004;48.206;16.402;2022-07-06T07:48:17;3.73;;;3.20;;
13868;SDS011;7004;48.206;16.402;2022-07-06T07:50:43;4.27;;;3.60;;
13868;SDS011;7004;48.206;16.402;2022-07-06T07:53:10;5.10;;;3.43;;
13868;SDS011;7004;48.206;16.402;2022-07-06T07:55:36;3.80;;;3.30;;
13868;SDS011;7004;48.206;16.402;2022-07-06T07:58:02;5.90;;;3.63;;
13868;SDS011;7004;48.206;16.402;2022-07-06T08:00:28;5.17;;;3.17;;
13868;SDS011;7004;48.206;16.402;2022-07-06T08:02:54;3.80;;;3.13;;
13868;SDS011;7004;48.206;16.402;2022-07-06T08:05:20;3.37;;;3.07;;
13868;SDS011;7004;48.206;16.402;2022-07-06T08:07:47;7.47;;;3.50;;
13868;SDS011;7004;48.206;16.402;2022-07-06T08:10:13;6.33;;;3.40;;
13868;SDS011;7004;48.206;16.402;2022-07-06T08:12:39;4.90;;;3.20;;
13868;SDS011;7004;48.206;16.402;2022-07-06T08:15:06;3.50;;;3.30;;
13868;SDS011;7004;48.206;16.402;2022-07-06T08:17:33;4.10;;;3.70;;
13868;SDS011;7004;48.206;16.402;2022-07-06T08:19:59;4.27;;;3.37;;
13868;SDS011;7004;48.206;16.402;2022-07-06T08:22:25;5.90;;;3.43;;
13868;SDS011;7004;48.206;16.402;2022-07-06T08:24:52;7.30;;;3.60;;
13868;SDS011;7004;48.206;16.402;2022-07-06T08:27:18;3.67;;;3.37;;
13868;SDS011;7004;48.206;16.402;2022-07-06T08:29:44;3.60;;;3.27;;
13868;SDS011;7004;48.206;16.402;2022-07-06T08:32:10;5.17;;;3.37;;
13868;SDS011;7004;48.206;16.402;2022-07-06T08:34:37;3.67;;;3.37;;
13868;SDS011;7004;48.206;16.402;2022-07-06T08:37:03;4.63;;;3.10;;
13868;SDS011;7004;48.206;16.402;2022-07-06T08:39:29;5.27;;;3.30;;
13868;SDS011;7004;48.206;16.402;2022-07-06T08:41:56;5.23;;;3.50;;
13868;SDS011;7004;48.206;16.402;2022-07-06T08:44:24;3.40;;;3.13;;
13868;SDS011;7004;48.206;16.402;2022-07-06T08:46:52;3.53;;;3.23;;
13868;SDS011;7004;48.206;16.402;2022-07-06T08:49:19;3.63;;;2.70;;
13868;SDS011;7004;48.206;16.402;2022-07-06T08:51:46;4.67;;;3.17;;
13868;SDS011;7004;48.206;16.402;2022-07-06T08:54:12;3.33;;;3.03;;
13868;SDS011;7004;48.206;16.402;2022-07-06T08:56:39;3.40;;;3.20;;
13868;SDS011;7004;48.206;16.402;2022-07-06T08:59:06;3.93;;;3.50;;
13868;SDS011;7004;48.206;16.402;2022-07-06T09:01:34;3.20;;;2.90;;
13868;SDS011;7004;48.206;16.402;2022-07-06T09:04:02;4.20;;;2.83;;
13868;SDS011;7004;48.206;16.402;2022-07-06T09:06:30;3.67;;;3.37;;
13868;SDS011;7004;48.206;16.402;2022-07-06T09:08:56;5.37;;;3.50;;
13868;SDS011;7004;48.206;16.402;2022-07-06T09:11:24;3.87;;;3.53;;
13868;SDS011;7004;48.206;16.402;2022-07-06T09:13:53;4.63;;;3.50;;
13868;SDS011;7004;48.206;16.402;2022-07-06T09:16:25;3.77;;;3.50;;
13868;SDS011;7004;48.206;16.402;2022-07-06T09:18:53;5.70;;;3.27;;
13868;SDS011;7004;48.206;16.402;2022-07-06T09:21:24;6.60;;;3.27;;
13868;SDS011;7004;48.206;16.402;2022-07-06T09:23:58;5.47;;;3.90;;
13868;SDS011;7004;48.206;16.402;2022-07-06T09:26:27;6.07;;;3.73;;
13868;SDS011;7004;48.206;16.402;2022-07-06T09:28:57;7.50;;;4.03;;
13868;SDS011;7004;48.206;16.402;2022-07-06T09:31:26;5.77;;;4.03;;
13868;SDS011;7004;48.206;16.402;2022-07-06T09:34:00;4.10;;;3.70;;
13868;SDS011;7004;48.206;16.402;2022-07-06T09:36:43;4.27;;;3.30;;
13868;SDS011;7004;48.206;16.402;2022-07-06T09:39:17;4.07;;;3.57;;
13868;SDS011;7004;48.206;16.402;2022-07-06T09:41:46;4.63;;;3.70;;
13868;SDS011;7004;48.206;16.402;2022-07-06T09:44:18;7.70;;;4.03;;
13868;SDS011;7004;48.206;16.402;2022-07-06T09:46:49;4.40;;;4.00;;
13868;SDS011;7004;48.206;16.402;2022-07-06T09:49:20;3.90;;;3.60;;
13868;SDS011;7004;48.206;16.402;2022-07-06T09:51:48;7.63;;;4.03;;
13868;SDS011;7004;48.206;16.402;2022-07-06T09:54:16;11.10;;;4.03;;
13868;SDS011;7004;48.206;16.402;2022-07-06T09:56:44;4.93;;;3.70;;
13868;SDS011;7004;48.206;16.402;2022-07-06T09:59:25;6.37;;;3.90;;
13868;SDS011;7004;48.206;16.402;2022-07-06T10:01:54;4.70;;;4.23;;
13868;SDS011;7004;48.206;16.402;2022-07-06T10:04:23;4.20;;;3.80;;
13868;SDS011;7004;48.206;16.402;2022-07-06T10:06:51;6.53;;;3.73;;
13868;SDS011;7004;48.206;16.402;2022-07-06T10:09:20;4.50;;;3.80;;
13868;SDS011;7004;48.206;16.402;2022-07-06T10:11:52;5.40;;;3.73;;
13868;SDS011;7004;48.206;16.402;2022-07-06T10:14:27;4.73;;;4.23;;
13868;SDS011;7004;48.206;16.402;2022-07-06T10:17:00;8.07;;;3.90;;
13868;SDS011;7004;48.206;16.402;2022-07-06T10:19:31;7.40;;;3.80;;
13868;SDS011;7004;48.206;16.402;2022-07-06T10:22:00;5.30;;;4.27;;
13868;SDS011;7004;48.206;16.402;2022-07-06T10:24:28;4.17;;;3.77;;
13868;SDS011;7004;48.206;16.402;2022-07-06T10:26:56;4.13;;;3.47;;
13868;SDS011;7004;48.206;16.402;2022-07-06T10:29:23;5.13;;;3.47;;
13868;SDS011;7004;48.206;16.402;2022-07-06T10:31:50;6.43;;;3.57;;
13868;SDS011;7004;48.206;16.402;2022-07-06T10:34:18;5.03;;;3.73;;
13868;SDS011;7004;48.206;16.402;2022-07-06T10:36:49;7.30;;;3.97;;
13868;SDS011;7004;48.206;16.402;2022-07-06T10:39:31;7.23;;;3.80;;
13868;SDS011;7004;48.206;16.402;2022-07-06T10:42:40;5.97;;;3.40;;
13868;SDS011;7004;48.206;16.402;2022-07-06T10:45:07;4.93;;;3.43;;
13868;SDS011;7004;48.206;16.402;2022-07-06T10:47:36;4.00;;;3.47;;
13868;SDS011;7004;48.206;16.402;2022-07-06T10:50:03;4.57;;;3.60;;
13868;SDS011;7004;48.206;16.402;2022-07-06T10:53:03;3.87;;;3.47;;
13868;SDS011;7004;48.206;16.402;2022-07-06T10:55:58;3.70;;;3.40;;
13868;SDS011;7004;48.206;16.402;2022-07-06T10:58:38;8.30;;;3.37;;
13868;SDS011;7004;48.206;16.402;2022-07-06T11:01:18;11.63;;;3.60;;
13868;SDS011;7004;48.206;16.402;2022-07-06T11:06:22;7.07;;;3.10;;
13868;SDS011;7004;48.206;16.402;2022-07-06T11:11:20;3.60;;;2.70;;
13868;SDS011;7004;48.206;16.402;2022-07-06T11:16:30;3.77;;;2.47;;
13868;SDS011;7004;48.206;16.402;2022-07-06T11:19:06;5.37;;;2.60;;
13868;SDS011;7004;48.206;16.402;2022-07-06T11:24:32;5.87;;;2.60;;
13868;SDS011;7004;48.206;16.402;2022-07-06T11:27:00;2.60;;;2.40;;
13868;SDS011;7004;48.206;16.402;2022-07-06T11:29:27;5.97;;;2.90;;
13868;SDS011;7004;48.206;16.402;2022-07-06T11:31:56;4.97;;;2.70;;
13868;SDS011;7004;48.206;16.402;2022-07-06T11:34:31;2.90;;;2.40;;
13868;SDS011;7004;48.206;16.402;2022-07-06T11:37:04;5.07;;;2.70;;
13868;SDS011;7004;48.206;16.402;2022-07-06T11:39:34;3.47;;;2.40;;
13868;SDS011;7004;48.206;16.402;2022-07-06T11:42:02;3.03;;;2.47;;
13868;SDS011;7004;48.206;16.402;2022-07-06T11:44:29;4.90;;;2.50;;
13868;SDS011;7004;48.206;16.402;2022-07-06T11:46:57;2.53;;;2.30;;
13868;SDS011;7004;48.206;16.402;2022-07-06T11:49:26;3.07;;;2.47;;
13868;SDS011;7004;48.206;16.402;2022-07-06T11:51:52;6.43;;;2.80;;
13868;SDS011;7004;48.206;16.402;2022-07-06T11:54:19;5.40;;;2.87;;
13868;SDS011;7004;48.206;16.402;2022-07-06T11:56:50;4.30;;;2.70;;
13868;SDS011;7004;48.206;16.402;2022-07-06T11:59:23;3.70;;;2.50;;
13868;SDS011;7004;48.206;16.402;2022-07-06T12:02:01;4.37;;;2.70;;
13868;SDS011;7004;48.206;16.402;2022-07-06T12:04:33;4.97;;;2.60;;
13868;SDS011;7004;48.206;16.402;2022-07-06T12:07:03;8.03;;;2.70;;
13868;SDS011;7004;48.206;16.402;2022-07-06T12:09:34;3.97;;;2.43;;
13868;SDS011;7004;48.206;16.402;2022-07-06T12:12:03;6.13;;;2.73;;
13868;SDS011;7004;48.206;16.402;2022-07-06T12:14:31;4.77;;;2.70;;
13868;SDS011;7004;48.206;16.402;2022-07-06T12:17:03;2.80;;;2.50;;
13868;SDS011;7004;48.206;16.402;2022-07-06T12:19:37;4.33;;;2.60;;
13868;SDS011;7004;48.206;16.402;2022-07-06T12:22:04;9.13;;;2.90;;
13868;SDS011;7004;48.206;16.402;2022-07-06T12:24:32;5.77;;;3.30;;
13868;SDS011;7004;48.206;16.402;2022-07-06T12:29:40;3.30;;;3.00;;
13868;SDS011;7004;48.206;16.402;2022-07-06T12:32:13;5.83;;;2.90;;
13868;SDS011;7004;48.206;16.402;2022-07-06T12:34:44;5.60;;;3.00;;
13868;SDS011;7004;48.206;16.402;2022-07-06T12:37:11;3.23;;;2.63;;
13868;SDS011;7004;48.206;16.402;2022-07-06T12:39:42;2.90;;;2.60;;
13868;SDS011;7004;48.206;16.402;2022-07-06T12:42:14;7.00;;;2.67;;
13868;SDS011;7004;48.206;16.402;2022-07-06T12:44:46;2.80;;;2.50;;
13868;SDS011;7004;48.206;16.402;2022-07-06T12:47:19;3.07;;;2.57;;
13868;SDS011;7004;48.206;16.402;2022-07-06T12:49:48;2.70;;;2.50;;
13868;SDS011;7004;48.206;16.402;2022-07-06T12:52:36;2.77;;;2.50;;
13868;SDS011;7004;48.206;16.402;2022-07-06T12:55:04;3.50;;;2.70;;
13868;SDS011;7004;48.206;16.402;2022-07-06T12:57:46;6.33;;;2.60;;
13868;SDS011;7004;48.206;16.402;2022-07-06T13:00:14;3.30;;;2.30;;
13868;SDS011;7004;48.206;16.402;2022-07-06T13:02:43;3.90;;;2.80;;
13868;SDS011;7004;48.206;16.402;2022-07-06T13:05:12;7.53;;;2.60;;
13868;SDS011;7004;48.206;16.402;2022-07-06T13:07:44;5.30;;;2.43;;
13868;SDS011;7004;48.206;16.402;2022-07-06T13:10:13;3.20;;;2.90;;
13868;SDS011;7004;48.206;16.402;2022-07-06T13:12:40;3.33;;;2.60;;
13868;SDS011;7004;48.206;16.402;2022-07-06T13:15:07;6.03;;;2.60;;
13868;SDS011;7004;48.206;16.402;2022-07-06T13:17:34;3.97;;;2.90;;
13868;SDS011;7004;48.206;16.402;2022-07-06T13:20:03;4.27;;;2.60;;
13868;SDS011;7004;48.206;16.402;2022-07-06T13:22:34;4.23;;;2.57;;
13868;SDS011;7004;48.206;16.402;2022-07-06T13:25:00;3.83;;;2.67;;
13868;SDS011;7004;48.206;16.402;2022-07-06T13:27:27;4.47;;;2.90;;
13868;SDS011;7004;48.206;16.402;2022-07-06T13:29:53;3.30;;;2.63;;
13868;SDS011;7004;48.206;16.402;2022-07-06T13:32:19;4.40;;;2.90;;
13868;SDS011;7004;48.206;16.402;2022-07-06T13:34:47;3.50;;;2.77;;
13868;SDS011;7004;48.206;16.402;2022-07-06T13:37:13;2.60;;;2.37;;
13868;SDS011;7004;48.206;16.402;2022-07-06T13:39:39;6.20;;;2.90;;
13868;SDS011;7004;48.206;16.402;2022-07-06T13:42:05;5.63;;;2.60;;
13868;SDS011;7004;48.206;16.402;2022-07-06T13:44:33;2.77;;;2.57;;
13868;SDS011;7004;48.206;16.402;2022-07-06T13:46:59;4.67;;;2.60;;
13868;SDS011;7004;48.206;16.402;2022-07-06T13:49:25;6.20;;;2.77;;
13868;SDS011;7004;48.206;16.402;2022-07-06T13:51:51;4.17;;;2.57;;
13868;SDS011;7004;48.206;16.402;2022-07-06T13:54:17;2.93;;;2.60;;
13868;SDS011;7004;48.206;16.402;2022-07-06T13:56:43;3.97;;;2.60;;
13868;SDS011;7004;48.206;16.402;2022-07-06T13:59:09;2.87;;;2.60;;
13868;SDS011;7004;48.206;16.402;2022-07-06T14:01:35;7.37;;;2.43;;
13868;SDS011;7004;48.206;16.402;2022-07-06T14:04:02;3.33;;;2.50;;
13868;SDS011;7004;48.206;16.402;2022-07-06T14:06:28;3.03;;;2.40;;
13868;SDS011;7004;48.206;16.402;2022-07-06T14:08:54;3.93;;;2.77;;
13868;SDS011;7004;48.206;16.402;2022-07-06T14:11:20;2.93;;;2.30;;
13868;SDS011;7004;48.206;16.402;2022-07-06T14:13:46;2.77;;;2.27;;
13868;SDS011;7004;48.206;16.402;2022-07-06T14:16:12;4.37;;;2.27;;
13868;SDS011;7004;48.206;16.402;2022-07-06T14:18:39;2.60;;;2.30;;
13868;SDS011;7004;48.206;16.402;2022-07-06T14:21:05;4.53;;;2.30;;
13868;SDS011;7004;48.206;16.402;2022-07-06T14:23:31;3.87;;;2.60;;
13868;SDS011;7004;48.206;16.402;2022-07-06T14:25:58;2.43;;;2.23;;
13868;SDS011;7004;48.206;16.402;2022-07-06T14:28:24;3.27;;;2.60;;
13868;SDS011;7004;48.206;16.402;2022-07-06T14:30:50;3.27;;;2.30;;
13868;SDS011;7004;48.206;16.402;2022-07-06T14:33:17;2.53;;;2.33;;
13868;SDS011;7004;48.206;16.402;2022-07-06T14:35:49;3.50;;;2.60;;
13868;SDS011;7004;48.206;16.402;2022-07-06T14:38:19;3.00;;;2.70;;
13868;SDS011;7004;48.206;16.402;2022-07-06T14:40:46;3.03;;;2.57;;
13868;SDS011;7004;48.206;16.402;2022-07-06T14:43:14;4.20;;;2.50;;
13868;SDS011;7004;48.206;16.402;2022-07-06T14:45:42;4.27;;;2.57;;
13868;SDS011;7004;48.206;16.402;2022-07-06T14:48:12;5.50;;;3.13;;
13868;SDS011;7004;48.206;16.402;2022-07-06T14:50:39;4.43;;;3.00;;
13868;SDS011;7004;48.206;16.402;2022-07-06T14:53:05;4.13;;;3.00;;
13868;SDS011;7004;48.206;16.402;2022-07-06T14:55:31;4.40;;;2.93;;
13868;SDS011;7004;48.206;16.402;2022-07-06T14:57:58;5.57;;;3.20;;
13868;SDS011;7004;48.206;16.402;2022-07-06T15:00:24;3.30;;;3.00;;
13868;SDS011;7004;48.206;16.402;2022-07-06T15:02:50;3.27;;;2.80;;
13868;SDS011;7004;48.206;16.402;2022-07-06T15:05:16;3.00;;;2.80;;
13868;SDS011;7004;48.206;16.402;2022-07-06T15:07:43;4.13;;;3.10;;